This is the latest recevied weather packets stored in our database for station/object GW7287. If no packets are shown the sender has not sent any weather packets the latest 10 day(s).
| Time | Temp. | Humidity | Pressure | Rain* | Wind** | Luminosity | Snow |
|---|---|---|---|---|---|---|---|
| 1787619253 | 18.89° C | 65% | 929.8 hPa | - | - | - | - |
| 1787618551 | 18.89° C | 65% | 929.8 hPa | - | - | - | - |
| 1787615048 | 19.44° C | 65% | 929.6 hPa | - | - | - | - |
| 1787613399 | 20° C | 69% | 929.4 hPa | - | - | - | - |
| 1787613280 | 20° C | 69% | 929.4 hPa | - | - | - | - |
| 1787611855 | 20° C | 69% | 929.4 hPa | - | - | - | - |
| 1787609896 | 20.56° C | 65% | 929.3 hPa | - | - | - | - |
| 1787609743 | 20.56° C | 65% | 929.3 hPa | - | - | - | - |
| 1787608325 | 20.56° C | 65% | 929.3 hPa | - | - | - | - |
| 1787606714 | 21.11° C | 63% | 928.6 hPa | - | - | - | - |
| 1787606375 | 21.11° C | 63% | 928.6 hPa | - | - | - | - |
| 1787604995 | 21.11° C | 63% | 928.6 hPa | - | - | - | - |
| 1787602901 | 21.67° C | 56% | 927.5 hPa | - | - | - | - |
| 1787602736 | 21.67° C | 56% | 927.5 hPa | - | - | - | - |
| 1787601124 | 21.67° C | 56% | 927.5 hPa | - | - | - | - |
| 1787599374 | 22.22° C | 52% | 927.1 hPa | - | - | - | - |
| 1787599293 | 22.22° C | 52% | 927.1 hPa | - | - | - | - |
| 1787596366 | 22.22° C | 52% | 927.1 hPa | - | - | - | - |
| 1787595971 | 23.89° C | 49% | 927.3 hPa | - | - | - | - |
| 1787594145 | 23.89° C | 49% | 927.3 hPa | - | - | - | - |
| 1787592144 | 23.89° C | 46% | 927 hPa | - | - | - | - |
| 1787591088 | 23.89° C | 46% | 927 hPa | - | - | - | - |
| 1787588866 | 24.44° C | 41% | 926.9 hPa | - | - | - | - |
| 1787588663 | 24.44° C | 41% | 926.9 hPa | - | - | - | - |
| 1787585545 | 24.44° C | 41% | 926.9 hPa | - | - | - | - |
* Rain since midnight (hover to see other rain measurements)
** Current wind speed in m/s (hover to see current wind gust speed)